createdAt,value
2023-03-27T00:01:33.038Z,96271.20
2023-03-27T00:04:01.301Z,96263.80
2023-03-27T00:06:29.454Z,96264.00
2023-03-27T00:08:58.266Z,96263.40
2023-03-27T00:11:26.652Z,96249.60
2023-03-27T00:13:55.036Z,96246.00
2023-03-27T00:16:24.323Z,96250.00
2023-03-27T00:18:52.990Z,96235.80
2023-03-27T00:21:22.546Z,96216.00
2023-03-27T00:23:50.653Z,96212.20
2023-03-27T00:26:18.656Z,96187.80
2023-03-27T00:28:47.516Z,96181.00
2023-03-27T00:31:16.230Z,96175.40
2023-03-27T00:33:44.345Z,96168.40
2023-03-27T00:36:12.611Z,96153.00
2023-03-27T00:38:41.018Z,96150.60
2023-03-27T00:41:09.303Z,96146.20
2023-03-27T00:43:42.753Z,96141.20
2023-03-27T00:46:46.446Z,96138.40
2023-03-27T00:49:14.559Z,96143.00
2023-03-27T00:51:43.317Z,96151.00
2023-03-27T00:54:11.351Z,96152.80
2023-03-27T00:56:39.601Z,96153.80
2023-03-27T00:59:13.893Z,96153.80
2023-03-27T01:01:41.920Z,96155.60
2023-03-27T01:04:10.072Z,96153.40
2023-03-27T01:06:38.799Z,96148.20
2023-03-27T01:09:09.347Z,96153.60
2023-03-27T01:11:52.469Z,96146.20
2023-03-27T01:14:34.554Z,96140.20
2023-03-27T01:17:11.252Z,96140.40
2023-03-27T01:19:48.640Z,96141.00
2023-03-27T01:22:19.171Z,96137.20
2023-03-27T01:24:58.689Z,96134.40
2023-03-27T01:27:38.078Z,96143.20
2023-03-27T01:30:18.711Z,96139.80
2023-03-27T01:32:49.809Z,96136.40
2023-03-27T01:35:27.965Z,96129.40
2023-03-27T01:38:55.198Z,96125.60
2023-03-27T01:42:11.001Z,96124.60
2023-03-27T01:45:03.223Z,96117.40
2023-03-27T01:47:41.384Z,96106.60
2023-03-27T01:50:22.663Z,96107.80
2023-03-27T01:52:55.750Z,96108.20
2023-03-27T01:55:25.967Z,96083.20
2023-03-27T01:58:00.758Z,96081.20
2023-03-27T02:00:51.423Z,96080.80
2023-03-27T02:03:27.599Z,96066.80
2023-03-27T02:06:01.019Z,96058.80
2023-03-27T02:08:50.544Z,96066.00
2023-03-27T02:11:22.441Z,96047.60
2023-03-27T02:13:52.350Z,96037.20
2023-03-27T02:16:23.304Z,96038.40
2023-03-27T02:19:03.131Z,96036.60
2023-03-27T02:21:32.687Z,96035.60
2023-03-27T02:24:02.416Z,96039.60
2023-03-27T02:26:30.651Z,96036.00
2023-03-27T02:29:35.830Z,96024.40
2023-03-27T02:32:15.714Z,96024.80
2023-03-27T02:35:10.439Z,96021.80
2023-03-27T02:37:45.064Z,96015.60
2023-03-27T02:40:25.880Z,96008.20
2023-03-27T02:43:16.900Z,96011.20
2023-03-27T02:46:00.237Z,96015.20
2023-03-27T02:48:36.569Z,96007.60
2023-03-27T02:51:07.527Z,96007.00
2023-03-27T02:53:38.881Z,96003.40
2023-03-27T02:56:07.352Z,96006.40
2023-03-27T02:58:45.207Z,96003.20
2023-03-27T03:01:32.437Z,95998.80
2023-03-27T03:04:16.737Z,95996.20
2023-03-27T03:07:14.406Z,96004.20
2023-03-27T03:09:42.677Z,96005.00
2023-03-27T03:12:10.920Z,95996.40
2023-03-27T03:14:44.106Z,96003.40
2023-03-27T03:17:13.323Z,95999.00
2023-03-27T03:19:41.580Z,96000.40
2023-03-27T03:22:09.638Z,95997.40
2023-03-27T03:24:42.227Z,95989.80
2023-03-27T03:27:14.341Z,95991.20
2023-03-27T03:29:57.141Z,95987.00
2023-03-27T03:32:28.254Z,95984.60
2023-03-27T03:34:57.136Z,95979.40
2023-03-27T03:37:28.735Z,95966.40
2023-03-27T03:39:58.227Z,95946.20
2023-03-27T03:42:26.384Z,95941.80
2023-03-27T03:44:55.063Z,95955.60
2023-03-27T03:47:23.715Z,95962.40
2023-03-27T03:49:51.835Z,95966.20
2023-03-27T03:52:19.837Z,95956.60
2023-03-27T03:54:47.992Z,95947.40
2023-03-27T03:57:17.218Z,95937.20
2023-03-27T03:59:50.400Z,95931.20
2023-03-27T04:02:45.351Z,95921.80
2023-03-27T04:05:15.115Z,95915.40
2023-03-27T04:07:43.238Z,95902.00
2023-03-27T04:10:23.846Z,95885.80
2023-03-27T04:12:52.247Z,95886.20
2023-03-27T04:15:27.506Z,95893.00
2023-03-27T04:18:08.209Z,95888.20
2023-03-27T04:20:37.049Z,95891.60
2023-03-27T04:23:08.184Z,95884.80
2023-03-27T04:25:40.203Z,95889.40
2023-03-27T04:28:10.395Z,95892.20
2023-03-27T04:30:44.523Z,95893.80
2023-03-27T04:33:18.651Z,95892.20
2023-03-27T04:36:06.350Z,95872.00
2023-03-27T04:38:56.124Z,95883.20
2023-03-27T04:41:24.323Z,95881.20
2023-03-27T04:43:52.580Z,95861.20
2023-03-27T04:46:20.673Z,95860.80
2023-03-27T04:48:52.725Z,95858.40
2023-03-27T04:51:32.592Z,95846.80
2023-03-27T04:54:04.816Z,95849.40
2023-03-27T04:56:35.189Z,95848.60
2023-03-27T04:59:04.802Z,95847.40
2023-03-27T05:01:33.988Z,95854.60
2023-03-27T05:04:26.396Z,95839.20
2023-03-27T05:07:20.329Z,95830.60
2023-03-27T05:09:48.556Z,95815.60
2023-03-27T05:12:16.924Z,95812.20
2023-03-27T05:14:50.959Z,95809.20
2023-03-27T05:17:43.605Z,95810.00
2023-03-27T05:20:15.054Z,95806.80
2023-03-27T05:22:43.934Z,95795.00
2023-03-27T05:25:28.037Z,95792.40
2023-03-27T05:27:56.711Z,95794.00
2023-03-27T05:30:28.632Z,95794.60
2023-03-27T05:33:16.445Z,95792.80
2023-03-27T05:35:47.814Z,95793.20
2023-03-27T05:38:16.361Z,95798.60
2023-03-27T05:41:04.070Z,95794.80
2023-03-27T05:43:33.693Z,95796.60
2023-03-27T05:46:02.806Z,95793.80
2023-03-27T05:48:31.104Z,95799.00
2023-03-27T05:51:01.521Z,95791.40
2023-03-27T05:53:29.532Z,95783.80
2023-03-27T05:56:15.974Z,95782.60
2023-03-27T05:58:52.908Z,95790.60
2023-03-27T06:01:23.692Z,95778.60
2023-03-27T06:03:56.231Z,95775.00
2023-03-27T06:06:40.972Z,95773.80
2023-03-27T06:09:10.130Z,95762.40
2023-03-27T06:11:39.519Z,95768.80
2023-03-27T06:14:07.946Z,95767.00
2023-03-27T06:16:49.510Z,95775.80
2023-03-27T06:19:58.393Z,95775.00
2023-03-27T06:22:27.405Z,95776.40
2023-03-27T06:24:58.099Z,95770.80
2023-03-27T06:27:37.633Z,95773.20
2023-03-27T06:30:06.662Z,95771.00
2023-03-27T06:32:36.618Z,95761.80
2023-03-27T06:35:10.179Z,95768.20
2023-03-27T06:37:50.711Z,95765.40
2023-03-27T06:40:22.783Z,95761.40
2023-03-27T06:42:59.966Z,95752.40
2023-03-27T06:45:50.082Z,95746.20
2023-03-27T06:49:01.583Z,95737.40
2023-03-27T06:51:38.735Z,95730.80
2023-03-27T06:54:28.971Z,95716.20
2023-03-27T06:57:01.682Z,95720.20
2023-03-27T06:59:38.357Z,95721.40
2023-03-27T07:02:07.346Z,95727.20
2023-03-27T07:05:04.298Z,95729.20
2023-03-27T07:07:39.576Z,95728.60
2023-03-27T07:10:10.180Z,95727.00
2023-03-27T07:12:49.117Z,95719.00
2023-03-27T07:15:18.100Z,95722.00
2023-03-27T07:17:56.767Z,95726.80
2023-03-27T07:20:30.924Z,95730.80
2023-03-27T07:23:00.571Z,95731.60
2023-03-27T07:25:52.264Z,95726.60
2023-03-27T07:28:32.860Z,95724.60
2023-03-27T07:31:20.102Z,95723.60
2023-03-27T07:34:06.985Z,95726.40
2023-03-27T07:36:53.468Z,95726.00
2023-03-27T07:39:23.752Z,95725.80
2023-03-27T07:41:55.341Z,95721.00
2023-03-27T07:44:46.682Z,95712.80
2023-03-27T07:47:15.201Z,95704.80
2023-03-27T07:49:43.380Z,95706.80
2023-03-27T07:52:16.486Z,95704.60
2023-03-27T07:54:56.993Z,95706.80
2023-03-27T07:57:28.751Z,95698.40
2023-03-27T08:00:11.799Z,95691.80
2023-03-27T08:02:52.659Z,95686.40
2023-03-27T08:05:21.117Z,95682.20
2023-03-27T08:08:00.424Z,95682.60
2023-03-27T08:10:42.035Z,95690.00
2023-03-27T08:13:12.634Z,95693.80
2023-03-27T08:15:42.889Z,95699.00
2023-03-27T08:18:21.023Z,95690.40
2023-03-27T08:20:53.380Z,95687.40
2023-03-27T08:23:27.104Z,95676.20
2023-03-27T08:26:01.354Z,95678.20
2023-03-27T08:28:43.150Z,95680.40
2023-03-27T08:31:15.013Z,95678.80
2023-03-27T08:33:43.889Z,95677.00
2023-03-27T08:36:16.053Z,95669.20
2023-03-27T08:38:45.236Z,95675.40
2023-03-27T08:41:42.483Z,95674.60
2023-03-27T08:44:20.172Z,95672.00
2023-03-27T08:46:52.886Z,95669.00
2023-03-27T08:49:21.529Z,95675.40
2023-03-27T08:52:16.821Z,95677.40
2023-03-27T08:54:51.523Z,95677.60
2023-03-27T08:57:23.008Z,95673.00
2023-03-27T08:59:57.302Z,95668.00
2023-03-27T09:02:45.148Z,95669.40
2023-03-27T09:05:19.336Z,95663.00
2023-03-27T09:08:01.742Z,95662.20
2023-03-27T09:11:21.817Z,95666.00
2023-03-27T09:13:55.767Z,95670.80
2023-03-27T09:16:30.880Z,95669.40
2023-03-27T09:19:20.237Z,95663.00
2023-03-27T09:22:04.606Z,95657.20
2023-03-27T09:25:35.106Z,95658.40
2023-03-27T09:28:55.626Z,95661.80
2023-03-27T09:31:35.558Z,95658.80
2023-03-27T09:34:09.122Z,95652.60
2023-03-27T09:36:38.800Z,95648.80
2023-03-27T09:39:08.991Z,95641.60
2023-03-27T09:42:09.307Z,95635.80
2023-03-27T09:44:38.484Z,95626.60
2023-03-27T09:47:11.459Z,95619.60
2023-03-27T09:49:48.013Z,95622.40
2023-03-27T09:52:41.972Z,95622.40
2023-03-27T09:55:30.737Z,95623.80
2023-03-27T09:58:26.850Z,95623.80
2023-03-27T10:01:08.647Z,95616.00
2023-03-27T10:03:48.950Z,95613.00
2023-03-27T10:06:48.250Z,95612.20
2023-03-27T10:09:34.599Z,95607.00
2023-03-27T10:12:07.505Z,95603.40
2023-03-27T10:14:40.926Z,95599.20
2023-03-27T10:17:25.297Z,95599.00
2023-03-27T10:20:21.056Z,95598.80
2023-03-27T10:22:56.830Z,95605.40
2023-03-27T10:25:38.888Z,95603.20
2023-03-27T10:28:29.157Z,95591.20
2023-03-27T10:31:29.787Z,95588.80
2023-03-27T10:34:30.374Z,95581.20
2023-03-27T10:37:21.689Z,95576.00
2023-03-27T10:39:53.237Z,95567.80
2023-03-27T10:42:33.079Z,95557.40
2023-03-27T10:45:01.366Z,95554.60
2023-03-27T10:47:33.061Z,95556.00
2023-03-27T10:50:03.963Z,95573.40
2023-03-27T10:52:44.453Z,95570.60
2023-03-27T10:55:29.606Z,95573.00
2023-03-27T10:57:59.310Z,95572.00
2023-03-27T11:00:46.656Z,95558.80
2023-03-27T11:03:59.507Z,95552.00
2023-03-27T11:06:31.466Z,95560.40
2023-03-27T11:09:16.163Z,95554.40
2023-03-27T11:12:01.641Z,95551.80
2023-03-27T11:14:49.875Z,95548.20
2023-03-27T11:17:29.058Z,95545.00
2023-03-27T11:20:38.054Z,95531.20
2023-03-27T11:23:35.104Z,95533.20
2023-03-27T11:26:30.746Z,95526.20
2023-03-27T11:29:09.674Z,95524.80
2023-03-27T11:32:00.957Z,95519.20
2023-03-27T11:34:54.582Z,95515.40
2023-03-27T11:38:12.389Z,95508.00
2023-03-27T11:40:47.821Z,95501.00
2023-03-27T11:43:16.682Z,95496.80
2023-03-27T11:46:08.107Z,95484.80
2023-03-27T11:48:56.713Z,95476.00
2023-03-27T11:51:53.942Z,95470.60
2023-03-27T11:55:06.480Z,95471.00
2023-03-27T11:57:52.094Z,95467.00
2023-03-27T12:01:01.483Z,95467.60
2023-03-27T12:03:42.930Z,95469.80
2023-03-27T12:06:37.229Z,95462.40
2023-03-27T12:09:23.749Z,95459.60
2023-03-27T12:12:16.916Z,95456.20
2023-03-27T12:14:57.674Z,95452.80
2023-03-27T12:17:56.039Z,95449.80
2023-03-27T12:20:59.008Z,95453.00
2023-03-27T12:24:16.347Z,95449.40
2023-03-27T12:27:29.315Z,95452.00
2023-03-27T12:30:13.965Z,95459.40
2023-03-27T12:33:00.235Z,95465.20
2023-03-27T12:35:30.493Z,95464.00
2023-03-27T12:38:03.245Z,95461.60
2023-03-27T12:40:33.608Z,95458.60
2023-03-27T12:43:07.716Z,95463.60
2023-03-27T12:45:41.541Z,95467.80
2023-03-27T12:48:20.736Z,95466.60
2023-03-27T12:50:52.766Z,95464.60
2023-03-27T12:53:27.059Z,95463.20
2023-03-27T12:56:17.272Z,95458.60
2023-03-27T12:58:48.490Z,95463.00
2023-03-27T13:01:51.708Z,95459.20
2023-03-27T13:04:42.866Z,95461.40
2023-03-27T13:07:26.180Z,95462.20
2023-03-27T13:10:46.592Z,95455.80
2023-03-27T13:13:23.607Z,95453.60
2023-03-27T13:16:04.250Z,95443.00
2023-03-27T13:18:44.677Z,95439.00
2023-03-27T13:21:36.596Z,95437.00
2023-03-27T13:24:19.782Z,95436.40
2023-03-27T13:27:08.081Z,95436.00
2023-03-27T13:29:41.592Z,95431.60
2023-03-27T13:32:36.545Z,95427.40
2023-03-27T13:35:19.614Z,95430.80
2023-03-27T13:37:54.300Z,95429.80
2023-03-27T13:40:31.049Z,95423.40
2023-03-27T13:43:30.968Z,95419.20
2023-03-27T13:46:05.939Z,95416.80
2023-03-27T13:48:58.016Z,95417.60
2023-03-27T13:51:34.945Z,95426.60
2023-03-27T13:54:25.701Z,95429.60
2023-03-27T13:56:57.699Z,95425.00
2023-03-27T14:00:00.139Z,95435.80
2023-03-27T14:03:14.860Z,95436.60
2023-03-27T14:05:59.097Z,95421.80
2023-03-27T14:08:31.496Z,95398.40
2023-03-27T14:12:08.964Z,95403.40
2023-03-27T14:15:25.315Z,95409.40
2023-03-27T14:18:57.134Z,95408.80
2023-03-27T14:21:37.837Z,95407.80
2023-03-27T14:24:35.640Z,95402.60
2023-03-27T14:27:16.364Z,95406.00
2023-03-27T14:29:45.191Z,95402.00
2023-03-27T14:32:15.444Z,95394.20
2023-03-27T14:34:54.352Z,95384.00
2023-03-27T14:37:45.031Z,95386.40
2023-03-27T14:40:34.456Z,95393.40
2023-03-27T14:43:06.307Z,95397.60
2023-03-27T14:45:39.837Z,95403.80
2023-03-27T14:48:13.526Z,95404.40
2023-03-27T14:50:46.587Z,95405.20
2023-03-27T14:53:20.115Z,95402.80
2023-03-27T14:56:41.739Z,95395.20
2023-03-27T14:59:34.827Z,95402.60
2023-03-27T15:02:13.134Z,95403.60
2023-03-27T15:04:41.390Z,95401.20
2023-03-27T15:07:22.359Z,95404.60
2023-03-27T15:10:05.969Z,95406.20
2023-03-27T15:13:15.844Z,95409.00
2023-03-27T15:15:59.961Z,95412.20
2023-03-27T15:18:34.394Z,95409.60
2023-03-27T15:21:32.658Z,95408.40
2023-03-27T15:24:13.580Z,95409.00
2023-03-27T15:26:41.596Z,95421.40
2023-03-27T15:29:42.807Z,95424.20
2023-03-27T15:32:15.067Z,95431.80
2023-03-27T15:34:48.306Z,95435.00
2023-03-27T15:37:23.396Z,95436.20
2023-03-27T15:40:31.283Z,95440.00
2023-03-27T15:43:26.085Z,95450.80
2023-03-27T15:45:56.827Z,95445.80
2023-03-27T15:48:35.369Z,95453.60
2023-03-27T15:51:05.623Z,95462.80
2023-03-27T15:53:33.664Z,95474.40
2023-03-27T15:56:29.624Z,95477.20
2023-03-27T15:59:07.746Z,95481.60
2023-03-27T16:01:40.477Z,95492.00
2023-03-27T16:04:13.949Z,95496.20
2023-03-27T16:06:45.094Z,95502.20
2023-03-27T16:09:25.845Z,95507.80
2023-03-27T16:11:54.583Z,95509.60
2023-03-27T16:14:54.646Z,95510.00
2023-03-27T16:17:28.359Z,95509.60
2023-03-27T16:19:59.268Z,95507.80
2023-03-27T16:22:32.249Z,95507.00
2023-03-27T16:25:02.875Z,95512.00
2023-03-27T16:27:45.187Z,95517.80
2023-03-27T16:30:23.462Z,95521.00
2023-03-27T16:32:51.826Z,95518.00
2023-03-27T16:35:20.207Z,95511.60
2023-03-27T16:37:48.571Z,95502.60
2023-03-27T16:40:16.858Z,95496.20
2023-03-27T16:42:56.803Z,95501.80
2023-03-27T16:45:28.012Z,95504.60
2023-03-27T16:47:56.551Z,95506.40
2023-03-27T16:50:26.826Z,95507.20
2023-03-27T16:52:58.041Z,95497.60
2023-03-27T16:55:26.207Z,95500.40
2023-03-27T16:57:55.198Z,95497.40
2023-03-27T17:00:26.754Z,95497.40
2023-03-27T17:02:54.841Z,95498.40
2023-03-27T17:05:25.838Z,95500.20
2023-03-27T17:07:54.387Z,95500.40
2023-03-27T17:10:28.697Z,95500.00
2023-03-27T17:12:59.895Z,95507.20
2023-03-27T17:15:33.960Z,95510.40
2023-03-27T17:18:05.100Z,95511.20
2023-03-27T17:20:33.442Z,95512.00
2023-03-27T17:23:01.640Z,95508.60
2023-03-27T17:25:32.877Z,95505.80
2023-03-27T17:28:04.337Z,95509.20
2023-03-27T17:30:39.738Z,95505.40
2023-03-27T17:33:21.226Z,95501.20
2023-03-27T17:35:49.511Z,95505.20
2023-03-27T17:38:19.224Z,95512.40
2023-03-27T17:40:47.224Z,95517.60
2023-03-27T17:43:16.328Z,95520.00
2023-03-27T17:45:44.644Z,95522.60
2023-03-27T17:48:13.313Z,95522.00
2023-03-27T17:50:41.433Z,95525.20
2023-03-27T17:53:09.435Z,95518.80
2023-03-27T17:55:38.084Z,95524.20
2023-03-27T17:58:09.984Z,95524.20
2023-03-27T18:00:39.442Z,95519.60
2023-03-27T18:03:08.962Z,95520.40
2023-03-27T18:05:38.233Z,95526.60
2023-03-27T18:08:19.823Z,95527.60
2023-03-27T18:10:50.826Z,95535.60
2023-03-27T18:13:18.993Z,95532.40
2023-03-27T18:15:47.130Z,95535.40
2023-03-27T18:18:15.403Z,95536.80
2023-03-27T18:20:50.361Z,95537.00
2023-03-27T18:23:18.844Z,95537.40
2023-03-27T18:25:47.139Z,95540.80
2023-03-27T18:28:15.512Z,95541.60
2023-03-27T18:30:44.300Z,95544.20
2023-03-27T18:33:12.413Z,95540.60
2023-03-27T18:35:42.783Z,95541.60
2023-03-27T18:38:11.728Z,95536.80
2023-03-27T18:40:39.847Z,95537.00
2023-03-27T18:43:07.987Z,95536.60
2023-03-27T18:45:36.124Z,95539.40
2023-03-27T18:48:04.444Z,95540.60
2023-03-27T18:50:32.808Z,95553.40
2023-03-27T18:53:01.113Z,95554.20
2023-03-27T18:55:29.177Z,95550.60
2023-03-27T18:58:00.179Z,95548.60
2023-03-27T19:00:28.931Z,95548.20
2023-03-27T19:02:57.362Z,95551.60
2023-03-27T19:05:26.797Z,95556.00
2023-03-27T19:07:59.360Z,95559.80
2023-03-27T19:10:27.746Z,95565.40
2023-03-27T19:13:16.111Z,95567.00
2023-03-27T19:16:14.220Z,95569.00
2023-03-27T19:19:18.877Z,95573.40
2023-03-27T19:22:13.313Z,95576.80
2023-03-27T19:24:56.942Z,95575.20
2023-03-27T19:27:25.807Z,95571.40
2023-03-27T19:29:54.569Z,95573.60
2023-03-27T19:32:24.276Z,95574.00
2023-03-27T19:34:55.409Z,95573.00
2023-03-27T19:37:23.976Z,95570.80
2023-03-27T19:39:52.337Z,95576.40
2023-03-27T19:42:20.761Z,95573.20
2023-03-27T19:44:49.179Z,95571.60
2023-03-27T19:47:17.395Z,95574.80
2023-03-27T19:49:46.102Z,95568.80
2023-03-27T19:52:42.501Z,95566.80
2023-03-27T19:55:11.009Z,95568.20
2023-03-27T19:57:41.473Z,95569.00
2023-03-27T20:00:12.865Z,95567.80
2023-03-27T20:02:44.065Z,95566.40
2023-03-27T20:05:15.662Z,95566.20
2023-03-27T20:07:43.726Z,95567.80
2023-03-27T20:10:12.189Z,95569.00
2023-03-27T20:12:40.239Z,95571.40
2023-03-27T20:15:12.264Z,95572.20
2023-03-27T20:17:43.397Z,95571.40
2023-03-27T20:20:11.863Z,95572.60
2023-03-27T20:22:54.376Z,95576.20
2023-03-27T20:25:25.606Z,95590.00
2023-03-27T20:27:56.005Z,95597.20
2023-03-27T20:30:24.475Z,95607.60
2023-03-27T20:32:52.822Z,95620.00
2023-03-27T20:35:24.790Z,95622.40
2023-03-27T20:37:57.812Z,95635.20
2023-03-27T20:40:30.278Z,95654.00
2023-03-27T20:43:03.626Z,95670.40
2023-03-27T20:45:34.547Z,95681.20
2023-03-27T20:48:05.886Z,95708.60
2023-03-27T20:50:37.233Z,95720.60
2023-03-27T20:53:10.362Z,95730.80
2023-03-27T20:55:53.214Z,95736.60
2023-03-27T20:58:36.605Z,95745.60
2023-03-27T21:01:06.872Z,95759.40
2023-03-27T21:03:36.941Z,95754.00
2023-03-27T21:06:17.378Z,95765.80
2023-03-27T21:08:46.026Z,95772.40
2023-03-27T21:11:14.651Z,95776.20
2023-03-27T21:13:48.156Z,95780.40
2023-03-27T21:16:16.752Z,95784.80
2023-03-27T21:18:47.761Z,95780.40
2023-03-27T21:21:16.088Z,95777.80
2023-03-27T21:23:44.722Z,95783.60
2023-03-27T21:26:13.216Z,95779.00
2023-03-27T21:28:41.305Z,95786.40
2023-03-27T21:31:10.080Z,95783.60
2023-03-27T21:33:41.066Z,95791.20
2023-03-27T21:36:10.690Z,95803.80
2023-03-27T21:38:41.904Z,95807.80
2023-03-27T21:41:13.015Z,95806.80
2023-03-27T21:43:41.417Z,95806.40
2023-03-27T21:46:12.041Z,95806.80
2023-03-27T21:48:44.782Z,95813.40
2023-03-27T21:51:13.022Z,95808.20
2023-03-27T21:53:45.715Z,95815.40
2023-03-27T21:56:13.884Z,95827.80
2023-03-27T21:58:41.946Z,95831.20
2023-03-27T22:01:15.620Z,95834.40
2023-03-27T22:03:44.087Z,95838.40
2023-03-27T22:06:15.080Z,95846.60
2023-03-27T22:08:46.462Z,95837.00
2023-03-27T22:11:19.346Z,95845.60
2023-03-27T22:13:49.069Z,95861.20
2023-03-27T22:16:17.518Z,95874.80
2023-03-27T22:18:53.680Z,95874.20
2023-03-27T22:21:23.721Z,95878.60
2023-03-27T22:23:56.296Z,95883.60
2023-03-27T22:26:29.755Z,95893.80
2023-03-27T22:28:58.487Z,95902.60
2023-03-27T22:31:29.488Z,95901.60
2023-03-27T22:33:57.721Z,95922.20
2023-03-27T22:36:25.841Z,95913.60
2023-03-27T22:38:58.730Z,95920.20
2023-03-27T22:41:27.268Z,95926.60
2023-03-27T22:43:55.930Z,95933.20
2023-03-27T22:46:24.260Z,95929.60
2023-03-27T22:48:56.792Z,95939.60
2023-03-27T22:51:25.399Z,95955.20
2023-03-27T22:53:53.485Z,95948.60
2023-03-27T22:56:21.712Z,95965.40
2023-03-27T22:58:49.953Z,95968.60
2023-03-27T23:01:18.125Z,95979.40
2023-03-27T23:03:46.323Z,95979.20
2023-03-27T23:06:23.256Z,95988.20
2023-03-27T23:08:51.775Z,95987.80
2023-03-27T23:11:20.314Z,95985.80
2023-03-27T23:13:48.336Z,95989.20
2023-03-27T23:16:16.502Z,95993.20
2023-03-27T23:18:44.581Z,95999.80
2023-03-27T23:21:13.264Z,95993.00
2023-03-27T23:23:41.660Z,95996.20
2023-03-27T23:26:09.772Z,95994.20
2023-03-27T23:28:40.179Z,96002.20
2023-03-27T23:31:18.346Z,96010.60
2023-03-27T23:33:47.957Z,96014.20
2023-03-27T23:36:18.287Z,96015.60
2023-03-27T23:38:46.386Z,96022.20
2023-03-27T23:41:15.505Z,96021.00
2023-03-27T23:43:46.321Z,96038.00
2023-03-27T23:46:14.574Z,96039.40
2023-03-27T23:48:43.375Z,96048.60
2023-03-27T23:51:13.197Z,96049.20
2023-03-27T23:53:42.094Z,96065.80
2023-03-27T23:56:12.572Z,96062.00
2023-03-27T23:58:46.542Z,96071.20
